sensor_id;sensor_type;location;lat;lon;timestamp;pressure;altitude;pressure_sealevel;temperature;humidity
6094;BME280;19964;42.060;24.700;2022-09-01T00:01:15;97253.38;;;17.31;100.00
6094;BME280;19964;42.060;24.700;2022-09-01T00:03:46;97253.44;;;17.21;100.00
6094;BME280;19964;42.060;24.700;2022-09-01T00:06:13;97241.31;;;17.30;100.00
6094;BME280;19964;42.060;24.700;2022-09-01T00:08:40;97242.16;;;17.26;100.00
6094;BME280;19964;42.060;24.700;2022-09-01T00:11:06;97235.31;;;17.30;100.00
6094;BME280;19964;42.060;24.700;2022-09-01T00:13:33;97238.47;;;17.27;100.00
6094;BME280;19964;42.060;24.700;2022-09-01T00:15:59;97233.22;;;17.32;100.00
6094;BME280;19964;42.060;24.700;2022-09-01T00:18:28;97235.31;;;17.30;100.00
6094;BME280;19964;42.060;24.700;2022-09-01T00:20:56;97234.53;;;17.24;100.00
6094;BME280;19964;42.060;24.700;2022-09-01T00:23:23;97236.06;;;17.30;100.00
6094;BME280;19964;42.060;24.700;2022-09-01T00:25:50;97232.50;;;17.21;100.00
6094;BME280;19964;42.060;24.700;2022-09-01T00:28:17;97236.66;;;17.22;100.00
6094;BME280;19964;42.060;24.700;2022-09-01T00:30:43;97231.69;;;17.26;100.00
6094;BME280;19964;42.060;24.700;2022-09-01T00:33:10;97154.56;;;16.74;100.00
6094;BME280;19964;42.060;24.700;2022-09-01T00:35:36;97226.69;;;17.24;100.00
6094;BME280;19964;42.060;24.700;2022-09-01T00:38:04;97236.84;;;17.36;100.00
6094;BME280;19964;42.060;24.700;2022-09-01T00:40:31;97233.91;;;17.42;100.00
6094;BME280;19964;42.060;24.700;2022-09-01T00:42:58;97235.94;;;17.50;100.00
6094;BME280;19964;42.060;24.700;2022-09-01T00:45:25;97241.28;;;17.35;100.00
6094;BME280;19964;42.060;24.700;2022-09-01T00:47:51;97234.25;;;17.31;100.00
6094;BME280;19964;42.060;24.700;2022-09-01T00:50:18;97237.84;;;17.40;100.00
6094;BME280;19964;42.060;24.700;2022-09-01T00:52:47;97236.75;;;17.51;100.00
6094;BME280;19964;42.060;24.700;2022-09-01T00:55:18;97238.03;;;17.53;100.00
6094;BME280;19964;42.060;24.700;2022-09-01T00:57:49;97243.75;;;17.55;100.00
6094;BME280;19964;42.060;24.700;2022-09-01T01:00:17;97233.28;;;17.55;100.00
6094;BME280;19964;42.060;24.700;2022-09-01T01:02:44;97237.94;;;17.63;100.00
6094;BME280;19964;42.060;24.700;2022-09-01T01:05:11;97242.56;;;17.71;100.00
6094;BME280;19964;42.060;24.700;2022-09-01T01:07:39;97253.41;;;17.89;100.00
6094;BME280;19964;42.060;24.700;2022-09-01T01:10:07;97252.66;;;17.88;100.00
6094;BME280;19964;42.060;24.700;2022-09-01T01:12:37;97249.63;;;17.76;100.00
6094;BME280;19964;42.060;24.700;2022-09-01T01:15:05;97251.03;;;17.63;100.00
6094;BME280;19964;42.060;24.700;2022-09-01T01:17:33;97255.75;;;17.66;100.00
6094;BME280;19964;42.060;24.700;2022-09-01T01:19:59;97247.97;;;17.56;100.00
6094;BME280;19964;42.060;24.700;2022-09-01T01:22:47;97245.59;;;17.21;100.00
6094;BME280;19964;42.060;24.700;2022-09-01T01:25:31;97239.88;;;17.14;100.00
6094;BME280;19964;42.060;24.700;2022-09-01T01:28:08;97238.50;;;17.22;100.00
6094;BME280;19964;42.060;24.700;2022-09-01T01:30:36;97236.44;;;17.19;100.00
6094;BME280;19964;42.060;24.700;2022-09-01T01:33:04;97237.66;;;17.31;100.00
6094;BME280;19964;42.060;24.700;2022-09-01T01:35:34;97236.34;;;17.34;100.00
6094;BME280;19964;42.060;24.700;2022-09-01T01:38:02;97231.03;;;17.39;100.00
6094;BME280;19964;42.060;24.700;2022-09-01T01:40:33;97243.91;;;17.35;100.00
6094;BME280;19964;42.060;24.700;2022-09-01T01:43:00;97239.19;;;17.32;100.00
6094;BME280;19964;42.060;24.700;2022-09-01T01:45:28;97235.66;;;17.18;100.00
6094;BME280;19964;42.060;24.700;2022-09-01T01:47:54;97228.81;;;17.22;100.00
6094;BME280;19964;42.060;24.700;2022-09-01T01:50:22;97232.28;;;17.13;100.00
6094;BME280;19964;42.060;24.700;2022-09-01T01:52:50;97222.81;;;17.17;100.00
6094;BME280;19964;42.060;24.700;2022-09-01T01:55:16;97228.06;;;17.17;100.00
6094;BME280;19964;42.060;24.700;2022-09-01T01:57:45;97224.34;;;17.23;100.00
6094;BME280;19964;42.060;24.700;2022-09-01T02:00:17;97231.19;;;17.19;100.00
6094;BME280;19964;42.060;24.700;2022-09-01T02:02:45;97232.53;;;17.16;100.00
6094;BME280;19964;42.060;24.700;2022-09-01T02:05:17;97237.22;;;17.19;100.00
6094;BME280;19964;42.060;24.700;2022-09-01T02:07:46;97232.25;;;17.18;100.00
6094;BME280;19964;42.060;24.700;2022-09-01T02:10:12;97231.91;;;17.29;100.00
6094;BME280;19964;42.060;24.700;2022-09-01T02:12:39;97236.00;;;17.40;100.00
6094;BME280;19964;42.060;24.700;2022-09-01T02:15:08;97247.56;;;17.39;100.00
6094;BME280;19964;42.060;24.700;2022-09-01T02:17:36;97251.44;;;17.42;100.00
6094;BME280;19964;42.060;24.700;2022-09-01T02:20:04;97237.25;;;17.53;100.00
6094;BME280;19964;42.060;24.700;2022-09-01T02:22:30;97246.56;;;17.64;100.00
6094;BME280;19964;42.060;24.700;2022-09-01T02:24:57;97249.94;;;17.69;100.00
6094;BME280;19964;42.060;24.700;2022-09-01T02:27:25;97249.25;;;17.59;100.00
6094;BME280;19964;42.060;24.700;2022-09-01T02:29:53;97254.25;;;17.55;100.00
6094;BME280;19964;42.060;24.700;2022-09-01T02:32:21;97258.75;;;17.45;100.00
6094;BME280;19964;42.060;24.700;2022-09-01T02:34:48;97257.13;;;17.54;100.00
6094;BME280;19964;42.060;24.700;2022-09-01T02:37:18;97260.78;;;17.58;100.00
6094;BME280;19964;42.060;24.700;2022-09-01T02:39:50;97252.22;;;17.42;100.00
6094;BME280;19964;42.060;24.700;2022-09-01T02:42:17;97262.47;;;17.39;100.00
6094;BME280;19964;42.060;24.700;2022-09-01T02:44:51;97246.84;;;17.29;100.00
6094;BME280;19964;42.060;24.700;2022-09-01T02:47:17;97256.34;;;17.20;100.00
6094;BME280;19964;42.060;24.700;2022-09-01T02:49:45;97246.44;;;17.12;100.00
6094;BME280;19964;42.060;24.700;2022-09-01T02:52:12;97252.75;;;17.06;100.00
6094;BME280;19964;42.060;24.700;2022-09-01T02:54:42;97255.13;;;17.02;100.00
6094;BME280;19964;42.060;24.700;2022-09-01T02:57:11;97261.97;;;16.98;100.00
6094;BME280;19964;42.060;24.700;2022-09-01T02:59:37;97263.09;;;16.87;100.00
6094;BME280;19964;42.060;24.700;2022-09-01T03:02:06;97262.56;;;16.85;100.00
6094;BME280;19964;42.060;24.700;2022-09-01T03:04:33;97259.72;;;16.76;100.00
6094;BME280;19964;42.060;24.700;2022-09-01T03:07:01;97257.19;;;16.61;100.00
6094;BME280;19964;42.060;24.700;2022-09-01T03:09:27;97252.06;;;16.26;100.00
6094;BME280;19964;42.060;24.700;2022-09-01T03:11:54;97252.59;;;16.23;100.00
6094;BME280;19964;42.060;24.700;2022-09-01T03:14:21;97247.34;;;16.23;100.00
6094;BME280;19964;42.060;24.700;2022-09-01T03:16:48;97244.22;;;16.26;100.00
6094;BME280;19964;42.060;24.700;2022-09-01T03:19:14;97242.38;;;16.32;100.00
6094;BME280;19964;42.060;24.700;2022-09-01T03:21:44;97253.03;;;16.45;100.00
6094;BME280;19964;42.060;24.700;2022-09-01T03:24:13;97252.47;;;16.63;100.00
6094;BME280;19964;42.060;24.700;2022-09-01T03:26:41;97244.81;;;16.72;100.00
6094;BME280;19964;42.060;24.700;2022-09-01T03:29:08;97254.31;;;16.63;100.00
6094;BME280;19964;42.060;24.700;2022-09-01T03:31:34;97249.84;;;16.63;100.00
6094;BME280;19964;42.060;24.700;2022-09-01T03:34:01;97255.84;;;16.69;100.00
6094;BME280;19964;42.060;24.700;2022-09-01T03:36:30;97264.81;;;16.53;100.00
6094;BME280;19964;42.060;24.700;2022-09-01T03:38:57;97268.44;;;16.47;100.00
6094;BME280;19964;42.060;24.700;2022-09-01T03:41:26;97262.97;;;16.43;100.00
6094;BME280;19964;42.060;24.700;2022-09-01T03:43:53;97264.31;;;16.36;100.00
6094;BME280;19964;42.060;24.700;2022-09-01T03:46:22;97252.81;;;16.32;100.00
6094;BME280;19964;42.060;24.700;2022-09-01T03:48:49;97262.53;;;16.26;100.00
6094;BME280;19964;42.060;24.700;2022-09-01T03:51:17;97260.88;;;16.45;100.00
6094;BME280;19964;42.060;24.700;2022-09-01T03:53:44;97264.56;;;16.39;100.00
6094;BME280;19964;42.060;24.700;2022-09-01T03:56:11;97260.94;;;16.25;100.00
6094;BME280;19964;42.060;24.700;2022-09-01T03:58:41;97266.94;;;16.31;100.00
6094;BME280;19964;42.060;24.700;2022-09-01T04:01:11;97266.47;;;16.19;100.00
6094;BME280;19964;42.060;24.700;2022-09-01T04:03:38;97276.91;;;16.24;100.00
6094;BME280;19964;42.060;24.700;2022-09-01T04:06:06;97272.72;;;16.23;100.00
6094;BME280;19964;42.060;24.700;2022-09-01T04:08:33;97272.69;;;16.38;100.00
6094;BME280;19964;42.060;24.700;2022-09-01T04:11:01;97271.84;;;16.57;100.00
6094;BME280;19964;42.060;24.700;2022-09-01T04:13:30;97271.53;;;16.69;100.00
6094;BME280;19964;42.060;24.700;2022-09-01T04:15:59;97268.13;;;16.73;100.00
6094;BME280;19964;42.060;24.700;2022-09-01T04:18:25;97271.41;;;16.94;100.00
6094;BME280;19964;42.060;24.700;2022-09-01T04:20:52;97265.56;;;17.07;100.00
6094;BME280;19964;42.060;24.700;2022-09-01T04:23:21;97268.91;;;17.18;100.00
6094;BME280;19964;42.060;24.700;2022-09-01T04:25:52;97253.81;;;17.43;100.00
6094;BME280;19964;42.060;24.700;2022-09-01T04:28:22;97267.69;;;17.77;100.00
6094;BME280;19964;42.060;24.700;2022-09-01T04:30:50;97270.63;;;18.00;100.00
6094;BME280;19964;42.060;24.700;2022-09-01T04:33:19;97264.50;;;18.33;100.00
6094;BME280;19964;42.060;24.700;2022-09-01T04:35:46;97267.88;;;18.62;100.00
6094;BME280;19964;42.060;24.700;2022-09-01T04:38:13;97267.25;;;18.70;100.00
6094;BME280;19964;42.060;24.700;2022-09-01T04:40:41;97281.09;;;18.94;100.00
6094;BME280;19964;42.060;24.700;2022-09-01T04:43:07;97285.00;;;19.15;100.00
6094;BME280;19964;42.060;24.700;2022-09-01T04:45:34;97281.25;;;19.40;100.00
6094;BME280;19964;42.060;24.700;2022-09-01T04:48:01;97289.25;;;19.67;100.00
6094;BME280;19964;42.060;24.700;2022-09-01T04:50:30;97289.03;;;19.96;100.00
6094;BME280;19964;42.060;24.700;2022-09-01T04:52:59;97287.38;;;20.00;100.00
6094;BME280;19964;42.060;24.700;2022-09-01T04:55:26;97289.00;;;20.28;100.00
6094;BME280;19964;42.060;24.700;2022-09-01T04:57:54;97301.28;;;20.46;100.00
6094;BME280;19964;42.060;24.700;2022-09-01T05:00:22;97301.28;;;20.73;100.00
6094;BME280;19964;42.060;24.700;2022-09-01T05:02:50;97320.69;;;21.04;94.82
6094;BME280;19964;42.060;24.700;2022-09-01T05:05:18;97321.59;;;21.36;94.28
6094;BME280;19964;42.060;24.700;2022-09-01T05:07:46;97322.84;;;21.60;90.20
6094;BME280;19964;42.060;24.700;2022-09-01T05:10:15;97322.75;;;21.87;91.21
6094;BME280;19964;42.060;24.700;2022-09-01T05:12:42;97310.94;;;22.07;91.80
6094;BME280;19964;42.060;24.700;2022-09-01T05:15:10;97315.69;;;22.27;89.79
6094;BME280;19964;42.060;24.700;2022-09-01T05:17:37;97321.94;;;22.40;87.08
6094;BME280;19964;42.060;24.700;2022-09-01T05:20:04;97318.06;;;22.76;86.84
6094;BME280;19964;42.060;24.700;2022-09-01T05:22:32;97331.44;;;22.80;79.43
6094;BME280;19964;42.060;24.700;2022-09-01T05:25:01;97318.75;;;23.16;79.12
6094;BME280;19964;42.060;24.700;2022-09-01T05:27:38;97320.97;;;23.65;78.58
6094;BME280;19964;42.060;24.700;2022-09-01T05:30:06;97323.00;;;23.68;73.88
6094;BME280;19964;42.060;24.700;2022-09-01T05:32:34;97311.47;;;23.81;72.26
6094;BME280;19964;42.060;24.700;2022-09-01T05:35:02;97315.31;;;24.10;71.77
6094;BME280;19964;42.060;24.700;2022-09-01T05:37:33;97304.44;;;24.49;71.92
6094;BME280;19964;42.060;24.700;2022-09-01T05:40:05;97318.06;;;24.68;71.35
6094;BME280;19964;42.060;24.700;2022-09-01T05:42:34;97319.47;;;24.95;70.95
6094;BME280;19964;42.060;24.700;2022-09-01T05:45:03;97317.00;;;24.98;70.54
6094;BME280;19964;42.060;24.700;2022-09-01T05:47:31;97317.81;;;25.40;70.47
6094;BME280;19964;42.060;24.700;2022-09-01T05:50:01;97320.00;;;25.58;65.98
6094;BME280;19964;42.060;24.700;2022-09-01T05:52:28;97325.63;;;25.57;62.95
6094;BME280;19964;42.060;24.700;2022-09-01T05:54:58;97330.97;;;25.07;63.64
6094;BME280;19964;42.060;24.700;2022-09-01T05:57:27;97329.13;;;24.99;64.45
6094;BME280;19964;42.060;24.700;2022-09-01T05:59:53;97318.13;;;24.59;69.62
6094;BME280;19964;42.060;24.700;2022-09-01T06:02:20;97321.72;;;24.93;69.94
6094;BME280;19964;42.060;24.700;2022-09-01T06:04:47;97320.13;;;24.92;70.35
6094;BME280;19964;42.060;24.700;2022-09-01T06:07:14;97322.81;;;24.83;69.21
6094;BME280;19964;42.060;24.700;2022-09-01T06:09:42;97322.91;;;24.66;66.53
6094;BME280;19964;42.060;24.700;2022-09-01T06:12:10;97322.94;;;24.57;67.14
6094;BME280;19964;42.060;24.700;2022-09-01T06:14:42;97333.09;;;25.14;66.09
6094;BME280;19964;42.060;24.700;2022-09-01T06:17:09;97333.53;;;24.95;63.28
6094;BME280;19964;42.060;24.700;2022-09-01T06:19:40;97335.81;;;25.55;64.30
6094;BME280;19964;42.060;24.700;2022-09-01T06:22:07;97331.53;;;25.95;64.81
6094;BME280;19964;42.060;24.700;2022-09-01T06:24:34;97337.50;;;26.04;61.15
6094;BME280;19964;42.060;24.700;2022-09-01T06:27:04;97327.44;;;26.30;61.33
6094;BME280;19964;42.060;24.700;2022-09-01T06:29:31;97322.69;;;26.60;60.32
6094;BME280;19964;42.060;24.700;2022-09-01T06:31:59;97325.34;;;26.60;60.43
6094;BME280;19964;42.060;24.700;2022-09-01T06:34:26;97319.94;;;26.00;60.58
6094;BME280;19964;42.060;24.700;2022-09-01T06:36:53;97323.78;;;25.90;59.27
6094;BME280;19964;42.060;24.700;2022-09-01T06:39:20;97322.78;;;25.62;60.86
6094;BME280;19964;42.060;24.700;2022-09-01T06:41:50;97314.38;;;26.05;61.58
6094;BME280;19964;42.060;24.700;2022-09-01T06:44:17;97312.41;;;26.47;62.93
6094;BME280;19964;42.060;24.700;2022-09-01T06:46:47;97322.56;;;25.67;62.48
6094;BME280;19964;42.060;24.700;2022-09-01T06:49:15;97313.91;;;25.58;63.98
6094;BME280;19964;42.060;24.700;2022-09-01T06:51:42;97309.13;;;25.51;64.76
6094;BME280;19964;42.060;24.700;2022-09-01T06:54:16;97311.66;;;25.69;63.77
6094;BME280;19964;42.060;24.700;2022-09-01T06:56:44;97307.50;;;25.92;63.71
6094;BME280;19964;42.060;24.700;2022-09-01T06:59:10;97307.41;;;25.88;65.60
6094;BME280;19964;42.060;24.700;2022-09-01T07:01:39;97311.34;;;25.82;64.21
6094;BME280;19964;42.060;24.700;2022-09-01T07:04:06;97311.72;;;26.05;64.74
6094;BME280;19964;42.060;24.700;2022-09-01T07:06:35;97312.47;;;26.38;63.82
6094;BME280;19964;42.060;24.700;2022-09-01T07:09:04;97315.59;;;25.95;63.49
6094;BME280;19964;42.060;24.700;2022-09-01T07:11:32;97315.72;;;25.45;64.71
6094;BME280;19964;42.060;24.700;2022-09-01T07:14:01;97323.84;;;26.14;63.47
6094;BME280;19964;42.060;24.700;2022-09-01T07:16:28;97324.06;;;26.09;63.04
6094;BME280;19964;42.060;24.700;2022-09-01T07:18:59;97325.66;;;25.69;63.95
6094;BME280;19964;42.060;24.700;2022-09-01T07:21:26;97319.81;;;25.43;63.21
6094;BME280;19964;42.060;24.700;2022-09-01T07:23:58;97315.59;;;25.42;64.69
6094;BME280;19964;42.060;24.700;2022-09-01T07:26:28;97318.81;;;26.01;62.04
6094;BME280;19964;42.060;24.700;2022-09-01T07:28:55;97312.66;;;26.78;61.82
6094;BME280;19964;42.060;24.700;2022-09-01T07:31:25;97323.44;;;26.24;60.13
6094;BME280;19964;42.060;24.700;2022-09-01T07:33:57;97319.22;;;26.35;60.61
6094;BME280;19964;42.060;24.700;2022-09-01T07:36:24;97307.06;;;26.34;60.95
6094;BME280;19964;42.060;24.700;2022-09-01T07:38:51;97299.88;;;26.83;59.43
6094;BME280;19964;42.060;24.700;2022-09-01T07:41:21;97304.97;;;26.64;59.36
6094;BME280;19964;42.060;24.700;2022-09-01T07:43:47;97304.19;;;27.52;59.12
6094;BME280;19964;42.060;24.700;2022-09-01T07:46:15;97304.44;;;27.90;60.90
6094;BME280;19964;42.060;24.700;2022-09-01T07:48:42;97303.66;;;27.46;59.01
6094;BME280;19964;42.060;24.700;2022-09-01T07:51:11;97295.06;;;28.08;58.53
6094;BME280;19964;42.060;24.700;2022-09-01T07:53:38;97294.03;;;28.12;54.98
6094;BME280;19964;42.060;24.700;2022-09-01T07:56:05;97294.97;;;28.04;54.74
6094;BME280;19964;42.060;24.700;2022-09-01T07:58:34;97290.09;;;28.38;54.13
6094;BME280;19964;42.060;24.700;2022-09-01T08:01:05;97296.25;;;28.88;54.22
6094;BME280;19964;42.060;24.700;2022-09-01T08:03:31;97286.69;;;28.87;55.24
6094;BME280;19964;42.060;24.700;2022-09-01T08:06:01;97292.56;;;28.15;56.06
6094;BME280;19964;42.060;24.700;2022-09-01T08:08:30;97286.91;;;28.32;54.98
6094;BME280;19964;42.060;24.700;2022-09-01T08:10:56;97282.97;;;28.57;54.90
6094;BME280;19964;42.060;24.700;2022-09-01T08:13:23;97276.31;;;28.04;58.74
6094;BME280;19964;42.060;24.700;2022-09-01T08:15:51;97283.38;;;28.44;55.12
6094;BME280;19964;42.060;24.700;2022-09-01T08:18:18;97280.38;;;28.30;55.69
6094;BME280;19964;42.060;24.700;2022-09-01T08:20:45;97283.09;;;28.80;54.38
6094;BME280;19964;42.060;24.700;2022-09-01T08:23:12;97277.94;;;28.40;56.69
6094;BME280;19964;42.060;24.700;2022-09-01T08:25:39;97281.31;;;28.06;54.18
6094;BME280;19964;42.060;24.700;2022-09-01T08:28:08;97275.41;;;28.59;54.86
6094;BME280;19964;42.060;24.700;2022-09-01T08:30:36;97277.41;;;29.00;54.63
6094;BME280;19964;42.060;24.700;2022-09-01T08:33:05;97276.81;;;28.72;52.53
6094;BME280;19964;42.060;24.700;2022-09-01T08:35:32;97277.19;;;28.55;54.76
6094;BME280;19964;42.060;24.700;2022-09-01T08:37:58;97280.41;;;28.80;52.43
6094;BME280;19964;42.060;24.700;2022-09-01T08:40:25;97273.84;;;29.28;51.21
6094;BME280;19964;42.060;24.700;2022-09-01T08:42:53;97272.72;;;28.94;52.74
6094;BME280;19964;42.060;24.700;2022-09-01T08:45:22;97264.31;;;28.57;53.44
6094;BME280;19964;42.060;24.700;2022-09-01T08:47:54;97265.94;;;28.96;53.83
6094;BME280;19964;42.060;24.700;2022-09-01T08:50:22;97269.59;;;29.65;51.57
6094;BME280;19964;42.060;24.700;2022-09-01T08:52:50;97267.09;;;29.53;50.42
6094;BME280;19964;42.060;24.700;2022-09-01T08:55:21;97253.97;;;29.67;50.94
6094;BME280;19964;42.060;24.700;2022-09-01T08:57:52;97252.69;;;29.19;53.53
6094;BME280;19964;42.060;24.700;2022-09-01T09:00:23;97249.03;;;29.46;51.10
6094;BME280;19964;42.060;24.700;2022-09-01T09:02:56;97245.56;;;29.46;50.83
6094;BME280;19964;42.060;24.700;2022-09-01T09:05:32;97242.78;;;29.39;52.46
6094;BME280;19964;42.060;24.700;2022-09-01T09:08:15;97240.81;;;29.55;50.98
6094;BME280;19964;42.060;24.700;2022-09-01T09:10:44;97256.91;;;29.20;51.45
6094;BME280;19964;42.060;24.700;2022-09-01T09:13:16;97245.50;;;29.42;51.16
6094;BME280;19964;42.060;24.700;2022-09-01T09:15:49;97248.94;;;30.04;51.60
6094;BME280;19964;42.060;24.700;2022-09-01T09:18:18;97247.38;;;30.03;50.69
6094;BME280;19964;42.060;24.700;2022-09-01T09:20:48;97252.88;;;29.30;50.57
6094;BME280;19964;42.060;24.700;2022-09-01T09:23:16;97246.78;;;29.48;51.93
6094;BME280;19964;42.060;24.700;2022-09-01T09:25:46;97242.63;;;29.93;48.37
6094;BME280;19964;42.060;24.700;2022-09-01T09:28:13;97235.22;;;30.05;50.91
6094;BME280;19964;42.060;24.700;2022-09-01T09:30:40;97212.84;;;30.92;47.25
6094;BME280;19964;42.060;24.700;2022-09-01T09:33:07;97237.22;;;30.12;48.72
6094;BME280;19964;42.060;24.700;2022-09-01T09:35:37;97235.75;;;29.50;51.63
6094;BME280;19964;42.060;24.700;2022-09-01T09:40:56;97236.59;;;29.96;50.98
6094;BME280;19964;42.060;24.700;2022-09-01T09:43:24;97236.59;;;28.81;50.84
6094;BME280;19964;42.060;24.700;2022-09-01T09:45:51;97228.09;;;28.75;51.13
6094;BME280;19964;42.060;24.700;2022-09-01T09:48:37;97229.44;;;29.80;49.42
6094;BME280;19964;42.060;24.700;2022-09-01T09:51:13;97229.13;;;29.06;50.10
6094;BME280;19964;42.060;24.700;2022-09-01T09:53:40;97225.25;;;29.03;52.00
6094;BME280;19964;42.060;24.700;2022-09-01T09:56:11;97215.44;;;29.26;49.88
6094;BME280;19964;42.060;24.700;2022-09-01T09:58:42;97216.19;;;30.10;48.90
6094;BME280;19964;42.060;24.700;2022-09-01T10:01:11;97216.63;;;30.12;47.47
6094;BME280;19964;42.060;24.700;2022-09-01T10:03:41;97205.97;;;30.38;46.94
6094;BME280;19964;42.060;24.700;2022-09-01T10:06:09;97214.00;;;29.51;48.60
6094;BME280;19964;42.060;24.700;2022-09-01T10:08:37;97211.44;;;29.55;51.42
6094;BME280;19964;42.060;24.700;2022-09-01T10:11:10;97211.97;;;29.64;49.24
6094;BME280;19964;42.060;24.700;2022-09-01T10:13:38;97204.78;;;30.36;47.88
6094;BME280;19964;42.060;24.700;2022-09-01T10:16:06;97200.09;;;30.29;48.30
6094;BME280;19964;42.060;24.700;2022-09-01T10:18:34;97196.56;;;30.48;48.68
6094;BME280;19964;42.060;24.700;2022-09-01T10:21:02;97191.50;;;29.94;48.60
6094;BME280;19964;42.060;24.700;2022-09-01T10:23:31;97195.66;;;29.08;51.35
6094;BME280;19964;42.060;24.700;2022-09-01T10:26:00;97183.91;;;29.32;50.43
6094;BME280;19964;42.060;24.700;2022-09-01T10:28:29;97187.09;;;30.28;48.44
6094;BME280;19964;42.060;24.700;2022-09-01T10:30:57;97188.97;;;30.01;48.56
6094;BME280;19964;42.060;24.700;2022-09-01T10:33:24;97189.41;;;30.07;50.36
6094;BME280;19964;42.060;24.700;2022-09-01T10:35:51;97186.97;;;30.47;48.57
6094;BME280;19964;42.060;24.700;2022-09-01T10:38:19;97186.81;;;29.88;48.71
6094;BME280;19964;42.060;24.700;2022-09-01T10:40:47;97184.81;;;29.81;53.57
6094;BME280;19964;42.060;24.700;2022-09-01T10:43:37;97182.19;;;29.84;49.32
6094;BME280;19964;42.060;24.700;2022-09-01T10:48:51;97181.09;;;30.34;50.09
6094;BME280;19964;42.060;24.700;2022-09-01T10:51:40;97172.66;;;30.32;50.34
6094;BME280;19964;42.060;24.700;2022-09-01T10:54:08;97176.78;;;30.04;49.69
6094;BME280;19964;42.060;24.700;2022-09-01T10:56:45;97174.34;;;29.95;50.03
6094;BME280;19964;42.060;24.700;2022-09-01T10:59:23;97160.25;;;30.21;49.32
6094;BME280;19964;42.060;24.700;2022-09-01T11:07:31;97160.81;;;30.33;49.38
6094;BME280;19964;42.060;24.700;2022-09-01T11:12:46;97151.44;;;30.20;50.12
6094;BME280;19964;42.060;24.700;2022-09-01T11:15:33;97145.69;;;30.18;50.07
6094;BME280;19964;42.060;24.700;2022-09-01T11:18:01;97143.84;;;30.48;48.83
6094;BME280;19964;42.060;24.700;2022-09-01T11:20:28;97148.66;;;30.95;48.23
6094;BME280;19964;42.060;24.700;2022-09-01T11:22:58;97150.38;;;30.25;46.82
6094;BME280;19964;42.060;24.700;2022-09-01T11:25:36;97137.34;;;30.49;48.87
6094;BME280;19964;42.060;24.700;2022-09-01T11:28:05;97134.25;;;30.77;48.19
6094;BME280;19964;42.060;24.700;2022-09-01T11:30:34;97138.06;;;30.20;49.21
6094;BME280;19964;42.060;24.700;2022-09-01T11:33:05;97127.16;;;30.06;49.61
6094;BME280;19964;42.060;24.700;2022-09-01T11:35:37;97130.78;;;30.17;49.47
6094;BME280;19964;42.060;24.700;2022-09-01T11:38:04;97127.84;;;30.00;49.75
6094;BME280;19964;42.060;24.700;2022-09-01T11:40:32;97124.47;;;30.29;49.67
6094;BME280;19964;42.060;24.700;2022-09-01T11:43:01;97133.00;;;30.38;49.22
6094;BME280;19964;42.060;24.700;2022-09-01T11:45:30;97130.56;;;30.03;47.39
6094;BME280;19964;42.060;24.700;2022-09-01T11:48:00;97132.63;;;30.13;47.41
6094;BME280;19964;42.060;24.700;2022-09-01T11:50:29;97121.78;;;30.03;49.07
6094;BME280;19964;42.060;24.700;2022-09-01T11:52:57;97126.56;;;29.90;47.86
6094;BME280;19964;42.060;24.700;2022-09-01T11:55:28;97121.78;;;29.57;48.10
6094;BME280;19964;42.060;24.700;2022-09-01T11:57:55;97113.72;;;29.99;49.57
6094;BME280;19964;42.060;24.700;2022-09-01T12:00:24;97110.25;;;29.99;47.04
6094;BME280;19964;42.060;24.700;2022-09-01T12:02:51;97115.38;;;29.84;48.29
6094;BME280;19964;42.060;24.700;2022-09-01T12:05:25;97105.06;;;29.60;47.31
6094;BME280;19964;42.060;24.700;2022-09-01T12:07:52;97106.13;;;29.78;47.56
6094;BME280;19964;42.060;24.700;2022-09-01T12:10:20;97095.63;;;29.89;46.57
6094;BME280;19964;42.060;24.700;2022-09-01T12:12:47;97098.25;;;29.85;48.28
6094;BME280;19964;42.060;24.700;2022-09-01T12:15:18;97090.94;;;30.09;45.72
6094;BME280;19964;42.060;24.700;2022-09-01T12:17:45;97102.53;;;29.90;46.81
6094;BME280;19964;42.060;24.700;2022-09-01T12:20:18;97090.00;;;29.71;47.75
6094;BME280;19964;42.060;24.700;2022-09-01T12:22:46;97089.94;;;29.94;48.25
6094;BME280;19964;42.060;24.700;2022-09-01T12:25:17;97087.03;;;29.76;47.31
6094;BME280;19964;42.060;24.700;2022-09-01T12:27:44;97080.56;;;29.55;48.61
6094;BME280;19964;42.060;24.700;2022-09-01T12:30:11;97084.00;;;29.78;49.94
6094;BME280;19964;42.060;24.700;2022-09-01T12:32:38;97074.19;;;29.63;49.42
6094;BME280;19964;42.060;24.700;2022-09-01T12:35:10;97073.22;;;29.97;48.19
6094;BME280;19964;42.060;24.700;2022-09-01T12:37:39;97070.63;;;30.04;47.30
6094;BME280;19964;42.060;24.700;2022-09-01T12:40:16;97072.19;;;29.56;46.93
6094;BME280;19964;42.060;24.700;2022-09-01T12:42:48;97069.22;;;29.61;48.55
6094;BME280;19964;42.060;24.700;2022-09-01T12:45:15;97067.50;;;29.50;47.60
6094;BME280;19964;42.060;24.700;2022-09-01T12:48:01;97065.66;;;29.76;49.08
6094;BME280;19964;42.060;24.700;2022-09-01T12:50:35;97078.63;;;29.74;47.43
6094;BME280;19964;42.060;24.700;2022-09-01T12:53:02;97065.97;;;29.71;46.05
6094;BME280;19964;42.060;24.700;2022-09-01T12:55:40;97070.69;;;29.81;46.45
6094;BME280;19964;42.060;24.700;2022-09-01T12:58:19;97063.88;;;29.84;45.89
6094;BME280;19964;42.060;24.700;2022-09-01T13:00:53;97070.25;;;29.76;46.96
6094;BME280;19964;42.060;24.700;2022-09-01T13:03:20;97071.72;;;30.00;44.39
6094;BME280;19964;42.060;24.700;2022-09-01T13:05:49;97066.69;;;29.95;44.41
6094;BME280;19964;42.060;24.700;2022-09-01T13:08:16;97066.38;;;30.00;45.04
6094;BME280;19964;42.060;24.700;2022-09-01T13:10:45;97070.03;;;29.65;45.42
6094;BME280;19964;42.060;24.700;2022-09-01T13:13:12;97068.69;;;29.75;45.74
6094;BME280;19964;42.060;24.700;2022-09-01T13:15:40;97066.25;;;29.93;45.43
6094;BME280;19964;42.060;24.700;2022-09-01T13:18:07;97064.47;;;29.51;45.92